Time;durP1;ratioP1;P1;durP2;ratioP2;P2;SDS_P1;SDS_P2;PMS_P1;PMS_P2;Temp;Humidity;BMP_temperature;BMP_pressure;BME280_temperature;BME280_humidity;BME280_pressure;Samples;Min_cycle;Max_cycle;Signal;HPM_P1;HPM_P2
2022/01/23 00:00:21;;;;;;;3.70;3.40;;;14.90;60.00;;;;;;4958719;28;20039;-14
2022/01/23 00:02:50;;;;;;;3.92;3.72;;;14.90;60.30;;;;;;4958045;28;20039;-17
2022/01/23 00:05:16;;;;;;;3.70;3.50;;;14.90;60.00;;;;;;4941425;28;20122;-16
2022/01/23 00:07:43;;;;;;;3.47;3.28;;;14.90;60.20;;;;;;4951194;28;20039;-14
2022/01/23 00:10:10;;;;;;;4.45;4.15;;;14.90;59.90;;;;;;4957557;28;20047;-16
2022/01/23 00:12:44;;;;;;;3.55;3.35;;;14.90;60.80;;;;;;4957934;28;20053;-17
2022/01/23 00:17:54;;;;;;;3.47;3.20;;;14.90;60.10;;;;;;4938694;28;20139;-17
2022/01/23 00:20:20;;;;;;;3.67;3.47;;;14.80;60.10;;;;;;4938585;28;20071;-15
2022/01/23 00:22:52;;;;;;;3.55;3.30;;;14.90;60.10;;;;;;4942140;28;20058;-14
2022/01/23 00:30:48;;;;;;;3.20;3.00;;;14.90;60.00;;;;;;4956849;28;20075;-16
2022/01/23 00:33:14;;;;;;;2.92;2.80;;;14.90;60.00;;;;;;4938707;28;20103;-14
2022/01/23 00:35:40;;;;;;;3.40;3.10;;;14.90;60.00;;;;;;4938284;28;20059;-15
2022/01/23 00:38:07;;;;;;;3.10;2.80;;;14.90;60.00;;;;;;4951202;28;20114;-16
2022/01/23 00:40:34;;;;;;;3.03;2.83;;;14.90;59.90;;;;;;4938034;28;20382;-16
2022/01/23 00:43:01;;;;;;;2.92;2.83;;;14.90;60.10;;;;;;4938875;28;20048;-15
2022/01/23 00:45:33;;;;;;;3.00;2.80;;;14.80;60.10;;;;;;4938163;28;20103;-17
2022/01/23 00:48:07;;;;;;;2.97;2.78;;;14.80;60.10;;;;;;4943294;28;20074;-17
2022/01/23 00:50:43;;;;;;;3.35;3.15;;;14.80;60.10;;;;;;4957278;28;20036;-16
2022/01/23 00:53:10;;;;;;;3.55;3.25;;;14.80;60.10;;;;;;4957156;28;20567;-15
2022/01/23 00:55:43;;;;;;;3.20;3.00;;;14.80;60.10;;;;;;4957007;28;20125;-17
2022/01/23 00:58:09;;;;;;;3.13;2.92;;;14.80;60.10;;;;;;4957847;28;20187;-16
2022/01/23 01:00:35;;;;;;;3.05;2.90;;;14.80;60.10;;;;;;4957261;28;20245;-14
2022/01/23 01:03:01;;;;;;;3.35;3.15;;;14.80;60.10;;;;;;4956751;28;20134;-15
2022/01/23 01:05:27;;;;;;;3.10;2.90;;;14.80;60.10;;;;;;4957039;28;20476;-16
2022/01/23 01:07:57;;;;;;;2.95;2.80;;;14.80;60.00;;;;;;4956391;28;20110;-16
2022/01/23 01:10:29;;;;;;;3.17;2.97;;;14.80;60.00;;;;;;4956825;28;20047;-16
2022/01/23 01:12:59;;;;;;;3.10;2.90;;;14.80;60.10;;;;;;4957081;28;20099;-15
2022/01/23 01:31:27;;;;;;;2.83;2.63;;;14.80;60.00;;;;;;4950419;28;19978;-14
2022/01/23 01:34:03;;;;;;;2.50;2.40;;;14.80;60.10;;;;;;4942873;28;20048;-17
2022/01/23 01:36:37;;;;;;;3.10;2.90;;;14.80;60.10;;;;;;4943706;28;20083;-15
2022/01/23 01:39:05;;;;;;;2.53;2.40;;;14.80;60.30;;;;;;4957170;28;20514;-16
2022/01/23 01:41:34;;;;;;;2.72;2.53;;;14.70;60.30;;;;;;4962961;28;20364;-15
2022/01/23 01:44:00;;;;;;;2.55;2.45;;;14.80;60.10;;;;;;4963290;28;20382;-17
2022/01/23 01:46:26;;;;;;;2.53;2.42;;;14.80;60.10;;;;;;4946120;28;20473;-17
2022/01/23 01:48:51;;;;;;;2.60;2.40;;;14.80;60.10;;;;;;4944831;28;20078;-15
2022/01/23 01:51:18;;;;;;;2.70;2.60;;;14.80;60.10;;;;;;4956038;28;20051;-16
2022/01/23 01:53:49;;;;;;;2.22;2.13;;;14.80;60.10;;;;;;4962927;28;20062;-16
2022/01/23 01:56:14;;;;;;;2.60;2.50;;;14.80;60.10;;;;;;4963432;28;20047;-14
2022/01/23 02:09:26;;;;;;;;;;;14.80;60.20;;;;;;4963682;28;20047;-15
2022/01/23 02:15:08;;;;;;;2.40;2.30;;;14.70;60.10;;;;;;4962844;28;20098;-14
2022/01/23 02:55:39;;;;;;;2.10;2.00;;;14.70;60.00;;;;;;4940089;28;20062;-17
2022/01/23 02:58:07;;;;;;;2.00;1.90;;;14.80;60.10;;;;;;4957159;28;20055;-15
2022/01/23 03:00:47;;;;;;;2.10;2.00;;;14.70;60.10;;;;;;4959317;28;20043;-15
2022/01/23 03:03:20;;;;;;;2.20;2.10;;;14.70;60.10;;;;;;4940503;28;20055;-15
2022/01/23 03:05:58;;;;;;;2.23;2.13;;;14.70;60.00;;;;;;4950672;28;20043;-14
2022/01/23 03:08:31;;;;;;;2.10;2.00;;;14.70;60.00;;;;;;4958880;28;20412;-15
2022/01/23 03:11:02;;;;;;;2.25;2.15;;;14.70;60.00;;;;;;4958998;28;20107;-15
2022/01/23 03:29:57;;;;;;;2.20;2.10;;;14.70;60.10;;;;;;4958549;28;20051;-17
2022/01/23 03:32:29;;;;;;;2.22;2.13;;;14.60;60.00;;;;;;4939978;28;20040;-16
2022/01/23 03:34:55;;;;;;;1.83;1.73;;;14.70;60.00;;;;;;4941620;28;20058;-15
2022/01/23 03:37:20;;;;;;;2.10;2.00;;;14.70;60.10;;;;;;4959339;28;20047;-16
2022/01/23 03:39:47;;;;;;;1.90;1.80;;;14.70;60.10;;;;;;4958533;28;20485;-16
2022/01/23 03:42:12;;;;;;;1.85;1.75;;;14.60;60.00;;;;;;4958525;28;20046;-17
2022/01/23 03:44:42;;;;;;;2.00;1.90;;;14.70;60.00;;;;;;4958516;28;20047;-17
2022/01/23 03:50:08;;;;;;;1.67;1.58;;;14.60;60.00;;;;;;4955274;28;20043;-16
2022/01/23 03:52:34;;;;;;;1.52;1.52;;;14.70;60.00;;;;;;4957368;28;20039;-14
2022/01/23 03:54:59;;;;;;;1.65;1.55;;;14.60;60.00;;;;;;4958818;28;20040;-15
2022/01/23 03:57:25;;;;;;;1.88;1.77;;;14.70;60.10;;;;;;4957380;28;20043;-15
2022/01/23 03:59:51;;;;;;;1.85;1.60;;;14.60;60.00;;;;;;4958227;28;20054;-14
2022/01/23 04:02:16;;;;;;;2.08;1.98;;;14.60;60.10;;;;;;4957822;28;20500;-16
2022/01/23 04:04:42;;;;;;;1.85;1.75;;;14.60;60.10;;;;;;4958307;28;20104;-16
2022/01/23 04:07:14;;;;;;;2.00;1.90;;;14.60;60.10;;;;;;4958113;28;20075;-15
2022/01/23 04:09:40;;;;;;;1.95;1.85;;;14.60;60.00;;;;;;4957883;28;20050;-16
2022/01/23 04:12:09;;;;;;;2.10;2.00;;;14.60;60.10;;;;;;4951784;28;20509;-14
2022/01/23 04:14:36;;;;;;;1.77;1.67;;;14.60;60.00;;;;;;4938787;28;20071;-17
2022/01/23 04:33:44;;;;;;;1.77;1.67;;;14.60;60.00;;;;;;4957571;28;20101;-17
2022/01/23 05:00:59;;;;;;;1.65;1.55;;;14.60;60.00;;;;;;4957322;28;20126;-16
2022/01/23 05:06:00;;;;;;;1.75;1.65;;;14.50;60.00;;;;;;4957032;28;20102;-16
2022/01/23 05:08:27;;;;;;;2.00;1.90;;;14.60;60.00;;;;;;4957199;28;20047;-16
2022/01/23 05:10:58;;;;;;;1.70;1.60;;;14.50;59.90;;;;;;4956818;28;20034;-16
2022/01/23 05:13:24;;;;;;;1.42;1.42;;;14.50;60.00;;;;;;4940301;28;20048;-16
2022/01/23 05:15:50;;;;;;;1.70;1.60;;;14.50;60.10;;;;;;4937644;28;20043;-16
2022/01/23 05:18:15;;;;;;;1.60;1.50;;;14.50;60.00;;;;;;4938144;28;20126;-16
2022/01/23 05:20:42;;;;;;;1.60;1.50;;;14.50;59.90;;;;;;4937840;28;20138;-15
2022/01/23 05:23:08;;;;;;;1.67;1.58;;;14.50;60.10;;;;;;4938358;28;20043;-16
2022/01/23 05:25:36;;;;;;;1.42;1.33;;;14.50;60.10;;;;;;4949667;28;20129;-16
2022/01/23 05:28:02;;;;;;;1.60;1.50;;;14.50;60.10;;;;;;4937285;28;20502;-15
2022/01/23 05:30:28;;;;;;;1.60;1.50;;;14.50;60.10;;;;;;4944703;28;20389;-17
2022/01/23 05:32:55;;;;;;;1.40;1.30;;;14.50;60.00;;;;;;4956471;28;20062;-17
2022/01/23 05:35:23;;;;;;;1.80;1.70;;;14.50;60.00;;;;;;4956630;28;20047;-14
2022/01/23 05:37:48;;;;;;;1.65;1.55;;;14.50;60.10;;;;;;4956726;28;20047;-15
2022/01/23 05:40:16;;;;;;;1.70;1.60;;;14.60;60.10;;;;;;4957218;28;20183;-15
2022/01/23 05:42:42;;;;;;;1.27;1.27;;;14.50;60.10;;;;;;4956119;28;20416;-15
2022/01/23 05:45:08;;;;;;;1.58;1.50;;;14.50;60.10;;;;;;4957295;28;20035;-16
2022/01/23 05:47:34;;;;;;;1.38;1.38;;;14.50;60.10;;;;;;4956989;28;20062;-17
2022/01/23 05:50:00;;;;;;;1.80;1.70;;;14.50;59.90;;;;;;4956465;28;20039;-16
2022/01/23 05:52:25;;;;;;;1.33;1.33;;;14.50;60.00;;;;;;4938458;28;20047;-16
2022/01/23 05:54:51;;;;;;;1.10;1.10;;;14.50;59.90;;;;;;4937349;28;20035;-15
2022/01/23 05:57:16;;;;;;;1.58;1.48;;;14.50;60.10;;;;;;4951305;28;20567;-16
2022/01/23 05:59:42;;;;;;;1.27;1.20;;;14.50;60.00;;;;;;4953745;28;20036;-16
2022/01/23 06:02:08;;;;;;;1.38;1.35;;;14.50;59.90;;;;;;4937330;28;20043;-15
2022/01/23 06:04:33;;;;;;;1.40;1.35;;;14.50;60.90;;;;;;4948989;28;20154;-16
2022/01/23 06:06:59;;;;;;;1.25;1.25;;;14.50;60.10;;;;;;4955765;28;20036;-21
2022/01/23 06:09:25;;;;;;;1.20;1.20;;;14.40;60.20;;;;;;4938281;28;20194;-16
2022/01/23 06:11:51;;;;;;;1.20;1.20;;;14.50;60.20;;;;;;4936292;28;20047;-21
2022/01/23 06:14:17;;;;;;;1.27;1.27;;;14.50;60.10;;;;;;4957021;28;20040;-15
2022/01/23 06:16:43;;;;;;;1.33;1.33;;;14.50;60.10;;;;;;4956182;28;20195;-16
2022/01/23 06:19:09;;;;;;;1.10;1.10;;;14.50;60.00;;;;;;4957196;28;20067;-17
2022/01/23 06:21:34;;;;;;;1.23;1.23;;;14.50;60.00;;;;;;4959934;28;20075;-16
2022/01/23 06:24:09;;;;;;;1.60;1.50;;;14.50;60.00;;;;;;4960102;28;20145;-16
2022/01/23 06:26:46;;;;;;;1.17;1.17;;;14.50;60.10;;;;;;4959727;28;20058;-15
2022/01/23 06:29:12;;;;;;;1.20;1.20;;;14.50;60.10;;;;;;4960045;28;20428;-14
2022/01/23 06:31:39;;;;;;;1.50;1.40;;;14.40;60.10;;;;;;4959473;28;20155;-19
2022/01/23 06:34:06;;;;;;;1.40;1.30;;;14.50;60.10;;;;;;4959473;28;20047;-17
2022/01/23 06:36:32;;;;;;;1.13;1.13;;;14.50;60.20;;;;;;4960197;28;20416;-16
2022/01/23 06:38:58;;;;;;;1.67;1.58;;;14.50;60.00;;;;;;4959725;28;20039;-16
2022/01/23 06:41:24;;;;;;;1.52;1.42;;;14.50;60.00;;;;;;4960178;28;20058;-20
2022/01/23 06:43:49;;;;;;;2.30;1.20;;;14.50;60.10;;;;;;4959662;28;20122;-16
2022/01/23 06:46:15;;;;;;;1.08;1.08;;;14.50;60.10;;;;;;4955645;28;20123;-16
2022/01/23 06:48:41;;;;;;;1.05;1.05;;;14.40;60.10;;;;;;4941018;28;20044;-14
2022/01/23 06:51:06;;;;;;;1.30;1.20;;;14.40;60.10;;;;;;4950071;28;20081;-16
2022/01/23 06:53:32;;;;;;;1.20;1.20;;;14.50;60.00;;;;;;4960053;28;20042;-16
2022/01/23 06:55:57;;;;;;;1.10;1.10;;;14.40;60.00;;;;;;4959072;28;20047;-17
2022/01/23 06:58:23;;;;;;;1.17;1.08;;;14.50;60.10;;;;;;4959302;28;20488;-19
2022/01/23 07:00:48;;;;;;;1.00;1.00;;;14.50;60.20;;;;;;4940342;28;20048;-16
2022/01/23 07:03:14;;;;;;;1.30;1.20;;;14.50;60.10;;;;;;4940495;28;20043;-15
2022/01/23 07:05:40;;;;;;;1.10;1.00;;;14.50;60.10;;;;;;4941079;28;20055;-16
2022/01/23 07:08:05;;;;;;;0.80;0.80;;;14.40;60.10;;;;;;4955792;28;20062;-16
2022/01/23 07:10:31;;;;;;;1.10;1.10;;;14.50;60.10;;;;;;4959789;28;20500;-17
2022/01/23 07:12:56;;;;;;;1.33;1.33;;;14.40;60.10;;;;;;4958553;28;20041;-16
2022/01/23 07:15:22;;;;;;;1.13;1.13;;;14.40;60.10;;;;;;4959756;28;20428;-16
2022/01/23 07:17:48;;;;;;;1.67;1.38;;;14.40;60.10;;;;;;4958766;28;20114;-16
2022/01/23 07:20:13;;;;;;;1.05;1.00;;;14.50;60.10;;;;;;4956803;28;20043;-16
2022/01/23 07:22:39;;;;;;;1.13;1.13;;;14.40;60.30;;;;;;4940487;28;20576;-16
2022/01/23 07:25:05;;;;;;;1.23;1.13;;;14.40;60.10;;;;;;4939291;28;20050;-17
2022/01/23 07:27:36;;;;;;;0.88;0.88;;;14.50;60.10;;;;;;4957725;28;20154;-20
2022/01/23 07:30:02;;;;;;;1.20;1.10;;;14.40;60.30;;;;;;4958528;28;20044;-16
2022/01/23 07:32:27;;;;;;;1.05;1.05;;;14.40;60.20;;;;;;4959091;28;20119;-16
2022/01/23 07:34:53;;;;;;;1.05;1.05;;;14.40;60.30;;;;;;4958147;28;20043;-16
2022/01/23 07:37:19;;;;;;;1.20;1.10;;;14.40;60.20;;;;;;4958964;28;20135;-14
2022/01/23 07:39:44;;;;;;;0.90;0.90;;;14.40;60.20;;;;;;4958485;28;20053;-15
2022/01/23 07:42:10;;;;;;;0.95;0.95;;;14.40;60.10;;;;;;4948609;28;20051;-17
2022/01/23 07:44:35;;;;;;;1.10;1.10;;;14.40;60.00;;;;;;4940164;28;20136;-16
2022/01/23 07:47:01;;;;;;;0.90;0.90;;;14.40;60.20;;;;;;4939138;28;20106;-15
2022/01/23 07:49:27;;;;;;;0.98;0.98;;;14.40;60.20;;;;;;4939838;28;20083;-17
2022/01/23 07:51:52;;;;;;;1.35;1.00;;;14.40;60.20;;;;;;4955812;28;20078;-15
2022/01/23 07:54:18;;;;;;;0.68;0.68;;;14.50;60.90;;;;;;4958196;28;20122;-14
2022/01/23 07:56:44;;;;;;;0.80;0.80;;;14.40;60.30;;;;;;4958615;28;20055;-17
2022/01/23 07:59:10;;;;;;;0.90;0.90;;;14.40;60.30;;;;;;4958272;28;20055;-17
2022/01/23 08:01:39;;;;;;;0.90;0.90;;;14.40;60.30;;;;;;4958524;28;20055;-16
2022/01/23 08:04:06;;;;;;;0.95;0.95;;;14.40;60.20;;;;;;4957524;28;20126;-14
2022/01/23 08:06:33;;;;;;;1.23;0.85;;;14.40;60.30;;;;;;4958541;28;20062;-14
2022/01/23 08:08:59;;;;;;;2.50;1.10;;;14.30;60.10;;;;;;4957165;28;20042;-14
2022/01/23 08:11:24;;;;;;;1.17;1.17;;;14.30;60.40;;;;;;4958425;28;20051;-17
2022/01/23 08:13:50;;;;;;;2.03;1.38;;;14.30;60.50;;;;;;4957346;28;20086;-16
2022/01/23 08:16:16;;;;;;;1.85;1.70;;;14.30;60.60;;;;;;4957275;28;20047;-16
2022/01/23 08:18:41;;;;;;;1.25;1.17;;;14.30;60.60;;;;;;4958714;28;20066;-16
2022/01/23 08:21:07;;;;;;;1.70;1.60;;;14.30;60.70;;;;;;4609824;28;10000017;-14
2022/01/23 08:23:33;;;;;;;2.08;1.27;;;14.30;60.80;;;;;;4953545;28;20043;-16
2022/01/23 08:25:59;;;;;;;1.10;1.10;;;14.40;60.80;;;;;;4959882;28;20066;-14
2022/01/23 08:28:25;;;;;;;2.25;1.15;;;14.40;60.90;;;;;;4954816;28;20424;-15
2022/01/23 08:30:50;;;;;;;1.20;1.10;;;14.40;60.80;;;;;;4953768;28;20046;-16
2022/01/23 08:33:16;;;;;;;2.35;1.25;;;14.40;60.70;;;;;;4953418;28;20075;-15
2022/01/23 08:35:44;;;;;;;1.10;1.10;;;14.40;60.60;;;;;;4954378;28;20320;-16
2022/01/23 08:38:12;;;;;;;3.47;1.40;;;14.40;60.80;;;;;;4952268;28;20126;-15
2022/01/23 08:43:10;;;;;;;1.38;1.30;;;14.40;60.90;;;;;;4947329;28;20137;-16
2022/01/23 08:45:36;;;;;;;2.03;1.60;;;14.40;60.90;;;;;;4953443;28;20122;-15
2022/01/23 08:48:01;;;;;;;2.55;1.27;;;14.40;61.00;;;;;;4952795;28;20077;-17
2022/01/23 08:50:27;;;;;;;1.55;1.30;;;14.40;61.10;;;;;;4952554;28;20082;-14
2022/01/23 08:52:52;;;;;;;2.92;1.58;;;14.40;62.00;;;;;;4953038;28;20039;-17
2022/01/23 08:55:19;;;;;;;2.65;2.55;;;14.40;61.50;;;;;;4952459;28;20059;-16
2022/01/23 08:57:45;;;;;;;6.22;4.50;;;14.50;61.30;;;;;;4954736;28;20035;-16
2022/01/23 09:00:11;;;;;;;7.97;5.63;;;14.50;61.50;;;;;;4946760;28;20039;-14
2022/01/23 09:02:36;;;;;;;6.60;5.95;;;14.40;61.30;;;;;;4952200;28;20148;-16
2022/01/23 09:05:02;;;;;;;7.15;5.93;;;14.50;61.60;;;;;;4946602;28;20404;-18
2022/01/23 09:07:28;;;;;;;6.47;5.70;;;14.50;61.40;;;;;;4947924;28;20048;-15
2022/01/23 09:10:00;;;;;;;10.93;6.70;;;14.50;62.30;;;;;;4949207;28;20061;-17
2022/01/23 09:14:52;;;;;;;9.05;6.53;;;14.60;61.60;;;;;;4946023;28;20606;-17
2022/01/23 09:17:17;;;;;;;6.68;6.07;;;14.50;61.60;;;;;;4945910;28;20054;-16
2022/01/23 09:19:46;;;;;;;6.80;6.20;;;14.50;62.70;;;;;;4941617;28;20145;-17
2022/01/23 09:22:12;;;;;;;7.63;6.32;;;14.50;61.90;;;;;;4947547;28;20055;-15
2022/01/23 09:24:38;;;;;;;6.32;5.72;;;14.50;62.00;;;;;;4944836;28;20058;-17
2022/01/23 09:27:06;;;;;;;8.07;6.47;;;14.50;62.10;;;;;;4947899;28;20149;-18
2022/01/23 09:29:38;;;;;;;7.03;6.03;;;14.50;62.10;;;;;;4944389;28;20067;-18
2022/01/23 09:32:05;;;;;;;7.22;5.70;;;14.50;62.10;;;;;;4940501;28;20058;-15
2022/01/23 09:34:32;;;;;;;7.32;6.20;;;14.50;62.10;;;;;;4947210;28;20070;-15
2022/01/23 09:36:59;;;;;;;6.30;5.55;;;14.60;62.20;;;;;;4939777;28;20055;-15
2022/01/23 09:39:24;;;;;;;7.18;5.55;;;14.60;62.10;;;;;;4947789;28;20059;-18
2022/01/23 09:41:56;;;;;;;5.95;5.38;;;14.60;62.20;;;;;;4944803;28;20079;-16
2022/01/23 09:44:22;;;;;;;5.95;5.45;;;14.60;62.20;;;;;;4941745;28;20109;-16
2022/01/23 09:46:48;;;;;;;5.55;5.05;;;14.60;62.20;;;;;;4946273;28;20263;-18
2022/01/23 09:49:15;;;;;;;6.18;5.68;;;14.60;62.10;;;;;;4951642;28;20061;-15
2022/01/23 09:51:42;;;;;;;5.50;4.80;;;14.70;61.90;;;;;;4942461;28;21250;-17
2022/01/23 09:54:10;;;;;;;5.60;5.20;;;14.70;61.90;;;;;;4948936;28;20059;-16
2022/01/23 09:56:35;;;;;;;5.57;5.00;;;14.60;62.00;;;;;;4956748;28;20053;-16
2022/01/23 09:59:01;;;;;;;7.55;5.18;;;14.70;62.00;;;;;;4952976;28;20503;-15
2022/01/23 10:01:27;;;;;;;5.50;4.93;;;14.70;61.90;;;;;;4950817;28;20061;-17
2022/01/23 10:03:52;;;;;;;6.32;5.00;;;14.80;61.70;;;;;;4953506;28;20113;-18
2022/01/23 10:06:18;;;;;;;6.13;4.88;;;14.80;61.80;;;;;;4951182;28;20086;-15
2022/01/23 10:08:44;;;;;;;5.63;4.47;;;14.80;61.50;;;;;;4951144;28;20055;-18
2022/01/23 10:11:12;;;;;;;5.15;4.75;;;14.80;61.90;;;;;;4935166;28;20142;-17
2022/01/23 10:13:39;;;;;;;5.72;4.85;;;14.80;61.90;;;;;;4946607;28;20110;-16
2022/01/23 10:16:05;;;;;;;4.60;4.30;;;14.80;61.70;;;;;;4946572;28;20134;-16
2022/01/23 10:18:31;;;;;;;5.30;4.90;;;14.80;61.80;;;;;;4946772;28;20047;-19
2022/01/23 10:20:57;;;;;;;5.38;4.88;;;14.80;61.70;;;;;;4933684;28;20089;-17
2022/01/23 10:23:23;;;;;;;5.00;4.60;;;14.90;61.70;;;;;;4952637;28;20154;-18
2022/01/23 10:25:51;;;;;;;4.88;4.35;;;14.90;61.70;;;;;;4948357;28;20656;-19
2022/01/23 10:28:19;;;;;;;4.80;4.20;;;14.80;61.70;;;;;;4947356;28;20051;-16
2022/01/23 10:30:49;;;;;;;4.47;4.07;;;14.80;62.00;;;;;;4949702;28;20154;-15
2022/01/23 10:33:15;;;;;;;5.28;4.78;;;14.90;62.00;;;;;;4947442;28;20063;-18
2022/01/23 10:36:02;;;;;;;4.32;4.03;;;14.90;62.00;;;;;;4950308;28;20865;-16
2022/01/23 10:38:31;;;;;;;4.45;4.05;;;14.90;62.00;;;;;;4952445;28;20488;-18
2022/01/23 10:41:06;;;;;;;5.05;4.65;;;14.90;62.00;;;;;;4952804;28;20055;-19
2022/01/23 10:46:54;;;;;;;5.88;4.35;;;14.90;61.90;;;;;;4946740;28;21262;-17
2022/01/23 10:49:19;;;;;;;4.25;3.95;;;14.90;61.90;;;;;;4949652;28;20089;-15
2022/01/23 10:51:49;;;;;;;4.50;4.20;;;15.00;61.80;;;;;;4950680;28;20158;-17
2022/01/23 10:54:20;;;;;;;4.18;3.88;;;14.90;61.80;;;;;;4952388;28;20105;-17
2022/01/23 10:56:56;;;;;;;6.28;4.40;;;14.90;61.90;;;;;;4942733;28;20057;-16
2022/01/23 10:59:22;;;;;;;5.75;3.90;;;14.90;61.60;;;;;;4944571;28;20046;-17
2022/01/23 11:02:04;;;;;;;3.90;3.70;;;15.00;61.80;;;;;;4948814;28;20051;-18
2022/01/23 11:04:29;;;;;;;4.20;3.80;;;15.00;61.80;;;;;;4953402;28;20050;-15
2022/01/23 11:07:01;;;;;;;4.38;4.07;;;14.90;61.80;;;;;;4947075;28;20149;-18
2022/01/23 11:09:32;;;;;;;4.28;4.07;;;15.00;61.90;;;;;;4949912;28;20058;-17
2022/01/23 11:12:28;;;;;;;4.32;4.00;;;15.00;61.80;;;;;;4947097;28;20050;-17
2022/01/23 11:17:54;;;;;;;4.32;4.03;;;15.00;62.10;;;;;;4946419;28;20063;-19
2022/01/23 11:20:39;;;;;;;3.88;3.67;;;15.00;62.00;;;;;;4952062;28;20050;-15
2022/01/23 11:23:13;;;;;;;4.07;3.78;;;15.00;62.00;;;;;;4948973;28;20201;-19
2022/01/23 11:25:43;;;;;;;4.20;3.85;;;15.00;62.00;;;;;;4948846;28;20979;-17
2022/01/23 11:28:08;;;;;;;4.35;4.05;;;15.10;61.90;;;;;;4952657;28;20564;-17
2022/01/23 11:30:45;;;;;;;4.43;3.90;;;15.10;61.90;;;;;;4944996;28;20058;-17
2022/01/23 11:33:12;;;;;;;3.63;3.42;;;15.00;61.90;;;;;;4946617;28;20586;-17
2022/01/23 11:35:39;;;;;;;4.28;4.07;;;15.10;62.00;;;;;;4951632;28;20055;-16
2022/01/23 11:38:10;;;;;;;4.40;4.10;;;15.10;61.70;;;;;;4946154;28;20114;-15
2022/01/23 11:54:35;;;;;;;4.35;4.03;;;15.20;61.30;;;;;;4951598;28;20062;-16
2022/01/23 11:57:02;;;;;;;3.67;3.47;;;15.20;61.40;;;;;;4949232;28;20051;-20
2022/01/23 11:59:42;;;;;;;3.97;3.67;;;15.20;61.60;;;;;;4949435;28;21101;-15
2022/01/23 12:02:28;;;;;;;4.47;4.07;;;15.20;61.30;;;;;;4949078;28;20063;-18
2022/01/23 12:05:16;;;;;;;3.88;3.67;;;15.20;61.30;;;;;;4946959;28;20063;-18
2022/01/23 12:07:43;;;;;;;5.03;3.90;;;15.20;61.30;;;;;;4946043;28;20058;-16
2022/01/23 12:10:31;;;;;;;4.05;3.85;;;15.30;61.10;;;;;;4948364;28;20055;-15
2022/01/23 12:13:34;;;;;;;4.15;3.78;;;15.30;60.90;;;;;;4945435;28;20047;-17
2022/01/23 12:18:44;;;;;;;3.95;3.65;;;15.30;60.90;;;;;;4943838;28;20490;-18
2022/01/23 12:21:30;;;;;;;4.35;4.05;;;15.30;61.00;;;;;;4952224;28;20046;-16
2022/01/23 12:24:03;;;;;;;4.35;3.95;;;15.30;60.90;;;;;;4947923;28;20050;-17
2022/01/23 12:26:28;;;;;;;3.90;3.60;;;15.30;60.70;;;;;;4949475;28;20138;-16
2022/01/23 12:28:54;;;;;;;3.85;3.55;;;15.30;60.90;;;;;;4949919;28;20142;-15
2022/01/23 12:31:26;;;;;;;5.00;4.60;;;15.30;60.90;;;;;;4951418;28;20066;-16
2022/01/23 12:34:01;;;;;;;5.05;4.65;;;15.30;60.80;;;;;;4946285;28;20062;-16
2022/01/23 12:36:27;;;;;;;3.97;3.78;;;15.30;60.80;;;;;;4945617;28;20162;-18
2022/01/23 12:39:18;;;;;;;4.28;3.97;;;15.30;60.80;;;;;;4952283;28;20512;-17
2022/01/23 12:41:47;;;;;;;4.35;4.05;;;15.30;60.70;;;;;;4947077;28;20055;-16
2022/01/23 12:44:25;;;;;;;3.63;3.42;;;15.30;60.90;;;;;;4946773;28;20051;-17
2022/01/23 12:46:52;;;;;;;3.80;3.60;;;15.40;60.60;;;;;;4950615;28;21235;-16
2022/01/23 12:49:23;;;;;;;4.43;3.95;;;15.40;60.70;;;;;;4949160;28;20086;-19
2022/01/23 12:52:07;;;;;;;4.32;3.92;;;15.40;60.70;;;;;;4946204;28;20737;-17
2022/01/23 12:54:50;;;;;;;3.88;3.58;;;15.40;60.60;;;;;;4945015;28;20062;-19
2022/01/23 12:57:22;;;;;;;3.70;3.50;;;15.40;60.70;;;;;;4946602;28;20065;-16
2022/01/23 12:59:58;;;;;;;5.00;3.80;;;15.40;60.70;;;;;;4952310;28;20059;-15
2022/01/23 13:02:28;;;;;;;4.00;3.80;;;15.40;60.80;;;;;;4947435;28;20073;-15
2022/01/23 13:04:55;;;;;;;4.15;3.88;;;15.40;60.70;;;;;;4949322;28;20149;-17
2022/01/23 13:07:38;;;;;;;4.22;3.88;;;15.50;60.50;;;;;;4949940;28;20074;-16
2022/01/23 13:10:12;;;;;;;4.60;4.20;;;15.40;60.50;;;;;;4944470;28;20624;-15
2022/01/23 13:16:01;;;;;;;4.03;3.83;;;15.40;60.50;;;;;;4951147;28;20662;-17
2022/01/23 13:31:58;;;;;;;4.10;3.90;;;15.60;60.00;;;;;;4941849;28;21706;-18
2022/01/23 13:34:40;;;;;;;4.38;4.07;;;15.50;60.30;;;;;;4950741;28;20070;-17
2022/01/23 13:37:20;;;;;;;3.78;3.58;;;15.50;60.30;;;;;;4948907;28;20055;-26
2022/01/23 13:39:58;;;;;;;4.43;4.13;;;15.50;60.30;;;;;;4944129;28;21604;-15
2022/01/23 13:54:04;;;;;;;4.22;4.00;;;15.40;60.40;;;;;;4948240;28;20070;-17
2022/01/23 13:59:24;;;;;;;7.30;4.95;;;15.50;60.30;;;;;;4946683;28;20113;-17
2022/01/23 14:01:54;;;;;;;4.78;4.47;;;15.50;60.20;;;;;;4950955;28;20050;-16
2022/01/23 14:04:23;;;;;;;5.78;5.38;;;15.40;60.10;;;;;;4954798;28;20089;-15
2022/01/23 14:06:48;;;;;;;6.40;5.90;;;15.50;60.10;;;;;;4949665;28;20051;-17
2022/01/23 14:09:14;;;;;;;6.10;5.60;;;15.50;60.20;;;;;;4944215;28;20062;-14
2022/01/23 14:11:40;;;;;;;5.95;5.45;;;15.40;60.10;;;;;;4944601;28;20511;-17
2022/01/23 14:14:10;;;;;;;6.00;5.60;;;15.40;60.90;;;;;;4949853;28;20063;-17
2022/01/23 14:16:35;;;;;;;7.00;6.03;;;15.40;60.20;;;;;;4951254;28;20043;-17
2022/01/23 14:19:27;;;;;;;6.68;6.07;;;15.40;60.10;;;;;;4953702;28;20062;-18
2022/01/23 14:21:56;;;;;;;5.88;5.38;;;15.40;60.10;;;;;;4947167;28;20150;-16
2022/01/23 14:24:42;;;;;;;6.38;5.70;;;15.40;60.30;;;;;;4949857;28;20153;-17
2022/01/23 14:27:09;;;;;;;7.43;6.07;;;15.40;60.30;;;;;;4948471;28;20165;-17
2022/01/23 14:29:47;;;;;;;5.90;5.50;;;15.40;60.20;;;;;;4952578;28;20238;-16
2022/01/23 14:32:23;;;;;;;6.28;5.68;;;15.40;60.10;;;;;;4944663;28;20065;-16
2022/01/23 14:34:49;;;;;;;6.30;5.80;;;15.40;60.00;;;;;;4947430;28;20055;-16
2022/01/23 14:37:23;;;;;;;6.35;5.82;;;15.40;60.00;;;;;;4950242;28;20093;-17
2022/01/23 14:39:48;;;;;;;;;;;15.40;60.00;;;;;;4951870;28;20055;-18
2022/01/23 14:42:18;;;;;;;6.13;5.65;;;15.40;60.00;;;;;;4955209;28;20550;-17
2022/01/23 14:44:44;;;;;;;5.45;5.15;;;15.40;59.90;;;;;;4953371;28;20529;-16
2022/01/23 14:47:10;;;;;;;6.07;5.57;;;15.40;60.00;;;;;;4956154;28;20076;-15
2022/01/23 14:49:37;;;;;;;5.43;5.00;;;15.40;59.90;;;;;;4950112;28;20055;-17
2022/01/23 14:52:03;;;;;;;5.75;5.35;;;15.40;60.00;;;;;;4952805;28;20086;-17
2022/01/23 14:54:31;;;;;;;5.10;4.80;;;15.40;60.00;;;;;;4951951;28;20086;-15
2022/01/23 14:56:59;;;;;;;4.97;4.68;;;15.40;59.90;;;;;;4951627;28;20047;-18
2022/01/23 14:59:25;;;;;;;5.28;4.80;;;15.40;60.00;;;;;;4951008;28;20536;-15
2022/01/23 15:01:51;;;;;;;5.47;5.07;;;15.40;59.80;;;;;;4950842;28;21022;-16
2022/01/23 15:04:20;;;;;;;5.20;4.90;;;15.40;59.90;;;;;;4956720;28;20055;-16
2022/01/23 15:06:46;;;;;;;5.10;4.60;;;15.40;60.00;;;;;;4953723;28;20055;-17
2022/01/23 15:09:13;;;;;;;4.68;4.38;;;15.40;60.00;;;;;;4956426;28;20579;-16
2022/01/23 15:11:38;;;;;;;5.40;5.00;;;15.40;60.00;;;;;;4949465;28;20572;-15
2022/01/23 15:14:05;;;;;;;5.28;4.88;;;15.40;60.00;;;;;;4950447;28;20416;-17
2022/01/23 15:16:31;;;;;;;4.60;4.30;;;15.40;60.00;;;;;;4951502;28;20057;-18
2022/01/23 15:18:57;;;;;;;5.00;4.65;;;15.40;59.80;;;;;;4951212;28;20055;-18
2022/01/23 15:21:22;;;;;;;5.05;4.72;;;15.40;59.90;;;;;;4948690;28;20520;-15
2022/01/23 15:23:55;;;;;;;4.65;4.35;;;15.40;59.90;;;;;;4948706;28;20066;-18
2022/01/23 15:26:20;;;;;;;4.57;4.22;;;15.30;59.90;;;;;;4953338;28;20085;-18
2022/01/23 15:28:46;;;;;;;4.65;4.35;;;15.30;59.90;;;;;;4955780;28;20086;-16
2022/01/23 15:31:12;;;;;;;5.05;4.65;;;15.30;60.00;;;;;;4956170;28;20054;-18
2022/01/23 15:33:37;;;;;;;4.55;4.35;;;15.30;60.00;;;;;;4950715;28;20526;-16
2022/01/23 15:36:03;;;;;;;4.32;4.03;;;15.30;59.90;;;;;;4951715;28;20062;-16
2022/01/23 15:38:30;;;;;;;4.57;4.28;;;15.30;59.90;;;;;;4953207;28;20088;-15
2022/01/23 15:40:55;;;;;;;5.03;4.65;;;15.30;59.90;;;;;;4951881;28;20055;-17
2022/01/23 15:43:21;;;;;;;4.72;4.43;;;15.30;60.00;;;;;;4948954;28;20055;-17
2022/01/23 15:45:47;;;;;;;4.25;3.95;;;15.30;60.10;;;;;;4955426;28;20353;-16
2022/01/23 15:48:13;;;;;;;4.80;4.50;;;15.30;60.10;;;;;;4953560;28;20282;-16
2022/01/23 15:50:38;;;;;;;4.75;4.35;;;15.30;60.10;;;;;;4952333;28;20524;-17
2022/01/23 15:53:04;;;;;;;4.72;4.43;;;15.30;60.10;;;;;;4969164;28;20133;-17
2022/01/23 15:55:30;;;;;;;5.38;4.97;;;15.20;60.10;;;;;;4953049;28;20055;-17
2022/01/23 15:57:55;;;;;;;4.47;4.18;;;15.20;60.40;;;;;;4943974;28;20129;-16
2022/01/23 16:00:21;;;;;;;4.93;4.60;;;15.20;60.40;;;;;;4945401;28;20119;-17
2022/01/23 16:02:47;;;;;;;4.80;4.50;;;15.20;61.30;;;;;;4927275;28;20077;-17
2022/01/23 16:05:13;;;;;;;4.35;4.15;;;15.20;60.40;;;;;;4608669;28;10001326;-17
2022/01/23 16:07:39;;;;;;;4.70;4.40;;;15.20;60.50;;;;;;4946423;28;20516;-16
2022/01/23 16:10:05;;;;;;;5.10;4.70;;;15.20;60.40;;;;;;4947544;28;20946;-18
2022/01/23 16:12:30;;;;;;;4.70;4.40;;;15.20;60.30;;;;;;4947679;28;20062;-18